sensor_id;sensor_type;location;lat;lon;timestamp;pressure;altitude;pressure_sealevel;temperature;humidity
76794;BME280;65745;50.278;18.192;2023-01-13T00:01:52;99448.88;;;6.67;75.94
76794;BME280;65745;50.278;18.192;2023-01-13T00:04:21;99444.47;;;6.69;75.66
76794;BME280;65745;50.278;18.192;2023-01-13T00:06:51;99442.11;;;6.70;75.58
76794;BME280;65745;50.278;18.192;2023-01-13T00:09:20;99441.34;;;6.73;75.88
76794;BME280;65745;50.278;18.192;2023-01-13T00:11:57;99434.05;;;6.76;75.53
76794;BME280;65745;50.278;18.192;2023-01-13T00:14:38;99440.21;;;6.75;75.31
76794;BME280;65745;50.278;18.192;2023-01-13T00:17:10;99437.19;;;6.72;75.31
76794;BME280;65745;50.278;18.192;2023-01-13T00:19:39;99441.38;;;6.68;75.61
76794;BME280;65745;50.278;18.192;2023-01-13T00:22:09;99442.86;;;6.66;76.19
76794;BME280;65745;50.278;18.192;2023-01-13T00:24:41;99441.91;;;6.69;75.83
76794;BME280;65745;50.278;18.192;2023-01-13T00:27:10;99439.19;;;6.70;75.29
76794;BME280;65745;50.278;18.192;2023-01-13T00:29:39;99443.41;;;6.74;74.95
76794;BME280;65745;50.278;18.192;2023-01-13T00:32:09;99437.13;;;6.75;74.69
76794;BME280;65745;50.278;18.192;2023-01-13T00:34:38;99440.48;;;6.80;74.33
76794;BME280;65745;50.278;18.192;2023-01-13T00:37:07;99442.11;;;6.89;74.31
76794;BME280;65745;50.278;18.192;2023-01-13T00:39:40;99433.61;;;6.97;73.71
76794;BME280;65745;50.278;18.192;2023-01-13T00:42:12;99434.24;;;7.02;73.09
76794;BME280;65745;50.278;18.192;2023-01-13T00:44:59;99433.77;;;7.03;72.82
76794;BME280;65745;50.278;18.192;2023-01-13T00:47:28;99434.20;;;7.00;72.89
76794;BME280;65745;50.278;18.192;2023-01-13T00:50:02;99439.65;;;7.05;72.80
76794;BME280;65745;50.278;18.192;2023-01-13T00:52:35;99437.71;;;7.10;73.13
76794;BME280;65745;50.278;18.192;2023-01-13T00:55:08;99437.75;;;7.12;72.65
76794;BME280;65745;50.278;18.192;2023-01-13T00:57:37;99432.40;;;7.10;72.74
76794;BME280;65745;50.278;18.192;2023-01-13T01:00:10;99430.36;;;7.10;72.55
76794;BME280;65745;50.278;18.192;2023-01-13T01:02:42;99419.55;;;7.10;73.04
76794;BME280;65745;50.278;18.192;2023-01-13T01:05:12;99410.62;;;7.09;74.00
76794;BME280;65745;50.278;18.192;2023-01-13T01:07:41;99413.90;;;7.10;74.12
76794;BME280;65745;50.278;18.192;2023-01-13T01:10:14;99414.52;;;7.07;73.88
76794;BME280;65745;50.278;18.192;2023-01-13T01:12:43;99406.46;;;7.00;73.89
76794;BME280;65745;50.278;18.192;2023-01-13T01:15:13;99410.59;;;6.95;74.08
76794;BME280;65745;50.278;18.192;2023-01-13T01:17:42;99403.77;;;6.96;74.46
76794;BME280;65745;50.278;18.192;2023-01-13T01:20:13;99409.11;;;6.97;74.19
76794;BME280;65745;50.278;18.192;2023-01-13T01:22:42;99408.62;;;6.91;74.12
76794;BME280;65745;50.278;18.192;2023-01-13T01:25:11;99402.04;;;6.88;73.98
76794;BME280;65745;50.278;18.192;2023-01-13T01:27:41;99400.06;;;6.85;73.93
76794;BME280;65745;50.278;18.192;2023-01-13T01:30:13;99400.78;;;6.86;73.88
76794;BME280;65745;50.278;18.192;2023-01-13T01:32:45;99397.98;;;6.90;73.72
76794;BME280;65745;50.278;18.192;2023-01-13T01:35:15;99399.23;;;6.86;73.61
76794;BME280;65745;50.278;18.192;2023-01-13T01:37:44;99397.05;;;6.81;73.39
76794;BME280;65745;50.278;18.192;2023-01-13T01:40:17;99392.19;;;6.78;73.41
76794;BME280;65745;50.278;18.192;2023-01-13T01:42:47;99382.61;;;6.79;73.82
76794;BME280;65745;50.278;18.192;2023-01-13T01:45:37;99378.16;;;6.78;73.90
76794;BME280;65745;50.278;18.192;2023-01-13T01:48:07;99384.08;;;6.76;73.59
76794;BME280;65745;50.278;18.192;2023-01-13T01:50:39;99380.00;;;6.77;73.42
76794;BME280;65745;50.278;18.192;2023-01-13T01:53:17;99375.23;;;6.78;73.46
76794;BME280;65745;50.278;18.192;2023-01-13T01:55:51;99374.56;;;6.79;74.12
76794;BME280;65745;50.278;18.192;2023-01-13T01:58:24;99370.33;;;6.80;74.10
76794;BME280;65745;50.278;18.192;2023-01-13T02:00:54;99368.77;;;6.79;73.97
76794;BME280;65745;50.278;18.192;2023-01-13T02:03:23;99364.16;;;6.80;73.74
76794;BME280;65745;50.278;18.192;2023-01-13T02:05:56;99358.95;;;6.77;73.75
76794;BME280;65745;50.278;18.192;2023-01-13T02:08:26;99357.52;;;6.75;73.87
76794;BME280;65745;50.278;18.192;2023-01-13T02:10:55;99357.23;;;6.76;74.38
76794;BME280;65745;50.278;18.192;2023-01-13T02:13:36;99359.13;;;6.77;73.86
76794;BME280;65745;50.278;18.192;2023-01-13T02:16:14;99361.19;;;6.77;73.64
76794;BME280;65745;50.278;18.192;2023-01-13T02:18:54;99358.06;;;6.75;73.54
76794;BME280;65745;50.278;18.192;2023-01-13T02:21:48;99351.05;;;6.76;73.46
76794;BME280;65745;50.278;18.192;2023-01-13T02:24:36;99348.12;;;6.76;74.03
76794;BME280;65745;50.278;18.192;2023-01-13T02:27:42;99339.27;;;6.84;73.05
76794;BME280;65745;50.278;18.192;2023-01-13T02:30:27;99332.16;;;6.87;72.70
76794;BME280;65745;50.278;18.192;2023-01-13T02:33:48;99334.15;;;6.84;72.79
76794;BME280;65745;50.278;18.192;2023-01-13T02:36:29;99332.98;;;6.85;72.95
76794;BME280;65745;50.278;18.192;2023-01-13T02:39:18;99335.09;;;6.88;72.90
76794;BME280;65745;50.278;18.192;2023-01-13T02:41:55;99331.08;;;6.85;72.94
76794;BME280;65745;50.278;18.192;2023-01-13T02:44:49;99333.70;;;6.80;72.95
76794;BME280;65745;50.278;18.192;2023-01-13T02:47:23;99329.66;;;6.76;72.70
76794;BME280;65745;50.278;18.192;2023-01-13T02:49:57;99325.54;;;6.69;72.98
76794;BME280;65745;50.278;18.192;2023-01-13T02:52:33;99328.92;;;6.67;73.45
76794;BME280;65745;50.278;18.192;2023-01-13T02:55:09;99327.42;;;6.69;73.32
76794;BME280;65745;50.278;18.192;2023-01-13T02:57:41;99327.54;;;6.68;73.09
76794;BME280;65745;50.278;18.192;2023-01-13T03:00:19;99330.35;;;6.63;72.86
76794;BME280;65745;50.278;18.192;2023-01-13T03:02:50;99333.33;;;6.59;73.08
76794;BME280;65745;50.278;18.192;2023-01-13T03:05:22;99336.77;;;6.60;73.64
76794;BME280;65745;50.278;18.192;2023-01-13T03:08:12;99340.17;;;6.59;73.66
76794;BME280;65745;50.278;18.192;2023-01-13T03:11:02;99346.48;;;6.59;73.53
76794;BME280;65745;50.278;18.192;2023-01-13T03:14:04;99349.23;;;6.59;73.01
76794;BME280;65745;50.278;18.192;2023-01-13T03:16:50;99344.58;;;6.58;73.21
76794;BME280;65745;50.278;18.192;2023-01-13T03:19:29;99335.88;;;6.59;73.24
76794;BME280;65745;50.278;18.192;2023-01-13T03:22:05;99333.73;;;6.62;74.01
76794;BME280;65745;50.278;18.192;2023-01-13T03:24:45;99330.45;;;6.61;73.63
76794;BME280;65745;50.278;18.192;2023-01-13T03:27:21;99326.76;;;6.57;73.64
76794;BME280;65745;50.278;18.192;2023-01-13T03:29:58;99323.85;;;6.51;73.41
76794;BME280;65745;50.278;18.192;2023-01-13T03:32:37;99328.48;;;6.45;74.08
76794;BME280;65745;50.278;18.192;2023-01-13T03:35:13;99329.25;;;6.42;74.56
76794;BME280;65745;50.278;18.192;2023-01-13T03:37:55;99326.94;;;6.38;74.37
76794;BME280;65745;50.278;18.192;2023-01-13T03:40:30;99335.23;;;6.34;74.33
76794;BME280;65745;50.278;18.192;2023-01-13T03:43:11;99333.03;;;6.30;74.03
76794;BME280;65745;50.278;18.192;2023-01-13T03:46:17;99331.28;;;6.28;74.65
76794;BME280;65745;50.278;18.192;2023-01-13T03:48:54;99324.52;;;6.31;74.91
76794;BME280;65745;50.278;18.192;2023-01-13T03:51:27;99330.02;;;6.32;74.62
76794;BME280;65745;50.278;18.192;2023-01-13T03:54:03;99325.30;;;6.28;74.46
76794;BME280;65745;50.278;18.192;2023-01-13T03:56:41;99325.02;;;6.24;73.99
76794;BME280;65745;50.278;18.192;2023-01-13T03:59:22;99324.77;;;6.21;74.50
76794;BME280;65745;50.278;18.192;2023-01-13T04:02:08;99318.09;;;6.21;74.84
76794;BME280;65745;50.278;18.192;2023-01-13T04:04:42;99309.14;;;6.19;74.80
76794;BME280;65745;50.278;18.192;2023-01-13T04:07:22;99303.20;;;6.14;74.75
76794;BME280;65745;50.278;18.192;2023-01-13T04:10:07;99310.97;;;6.11;74.64
76794;BME280;65745;50.278;18.192;2023-01-13T04:12:41;99314.40;;;6.11;74.98
76794;BME280;65745;50.278;18.192;2023-01-13T04:15:45;99315.06;;;6.10;75.13
76794;BME280;65745;50.278;18.192;2023-01-13T04:18:16;99317.02;;;6.08;74.64
76794;BME280;65745;50.278;18.192;2023-01-13T04:20:48;99311.50;;;6.05;74.59
76794;BME280;65745;50.278;18.192;2023-01-13T04:23:21;99310.42;;;6.04;75.09
76794;BME280;65745;50.278;18.192;2023-01-13T04:25:51;99304.84;;;6.05;75.32
76794;BME280;65745;50.278;18.192;2023-01-13T04:28:21;99305.53;;;6.06;75.27
76794;BME280;65745;50.278;18.192;2023-01-13T04:30:50;99310.31;;;6.06;75.02
76794;BME280;65745;50.278;18.192;2023-01-13T04:33:20;99314.23;;;6.05;74.86
76794;BME280;65745;50.278;18.192;2023-01-13T04:35:50;99313.04;;;6.05;74.76
76794;BME280;65745;50.278;18.192;2023-01-13T04:38:21;99308.98;;;6.07;75.29
76794;BME280;65745;50.278;18.192;2023-01-13T04:40:50;99307.66;;;6.09;75.41
76794;BME280;65745;50.278;18.192;2023-01-13T04:43:19;99305.71;;;6.13;74.82
76794;BME280;65745;50.278;18.192;2023-01-13T04:45:48;99299.61;;;6.15;74.61
76794;BME280;65745;50.278;18.192;2023-01-13T04:48:17;99297.94;;;6.16;74.49
76794;BME280;65745;50.278;18.192;2023-01-13T04:50:46;99293.52;;;6.17;74.85
76794;BME280;65745;50.278;18.192;2023-01-13T04:53:16;99290.88;;;6.20;75.34
76794;BME280;65745;50.278;18.192;2023-01-13T04:55:46;99293.52;;;6.23;74.79
76794;BME280;65745;50.278;18.192;2023-01-13T04:58:17;99298.88;;;6.25;74.62
76794;BME280;65745;50.278;18.192;2023-01-13T05:00:50;99303.02;;;6.26;74.26
76794;BME280;65745;50.278;18.192;2023-01-13T05:03:19;99301.61;;;6.25;74.52
76794;BME280;65745;50.278;18.192;2023-01-13T05:05:51;99302.27;;;6.30;74.82
76794;BME280;65745;50.278;18.192;2023-01-13T05:08:21;99304.21;;;6.32;74.93
76794;BME280;65745;50.278;18.192;2023-01-13T05:10:52;99306.05;;;6.31;74.42
76794;BME280;65745;50.278;18.192;2023-01-13T05:13:21;99311.52;;;6.31;74.74
76794;BME280;65745;50.278;18.192;2023-01-13T05:16:23;99303.45;;;6.29;74.52
76794;BME280;65745;50.278;18.192;2023-01-13T05:19:11;99304.70;;;6.32;75.11
76794;BME280;65745;50.278;18.192;2023-01-13T05:21:40;99302.55;;;6.34;75.20
76794;BME280;65745;50.278;18.192;2023-01-13T05:24:34;99301.88;;;6.35;74.76
76794;BME280;65745;50.278;18.192;2023-01-13T05:27:22;99298.27;;;6.34;74.46
76794;BME280;65745;50.278;18.192;2023-01-13T05:29:51;99299.66;;;6.35;74.70
76794;BME280;65745;50.278;18.192;2023-01-13T05:32:21;99300.06;;;6.37;75.17
76794;BME280;65745;50.278;18.192;2023-01-13T05:34:54;99299.74;;;6.38;74.74
76794;BME280;65745;50.278;18.192;2023-01-13T05:37:23;99300.98;;;6.39;74.57
76794;BME280;65745;50.278;18.192;2023-01-13T05:39:55;99297.03;;;6.39;74.22
76794;BME280;65745;50.278;18.192;2023-01-13T05:42:44;99294.36;;;6.42;74.47
76794;BME280;65745;50.278;18.192;2023-01-13T05:45:38;99293.38;;;6.44;74.91
76794;BME280;65745;50.278;18.192;2023-01-13T05:48:10;99294.82;;;6.46;74.90
76794;BME280;65745;50.278;18.192;2023-01-13T05:50:39;99297.59;;;6.47;73.92
76794;BME280;65745;50.278;18.192;2023-01-13T05:53:11;99296.34;;;6.45;73.91
76794;BME280;65745;50.278;18.192;2023-01-13T05:55:42;99291.80;;;6.48;73.67
76794;BME280;65745;50.278;18.192;2023-01-13T05:58:10;99283.08;;;6.48;73.85
76794;BME280;65745;50.278;18.192;2023-01-13T06:00:40;99284.96;;;6.48;74.08
76794;BME280;65745;50.278;18.192;2023-01-13T06:03:10;99275.65;;;6.52;73.72
76794;BME280;65745;50.278;18.192;2023-01-13T06:05:43;99267.48;;;6.54;73.10
76794;BME280;65745;50.278;18.192;2023-01-13T06:08:12;99270.88;;;6.53;73.44
76794;BME280;65745;50.278;18.192;2023-01-13T06:10:41;99284.67;;;6.51;73.34
76794;BME280;65745;50.278;18.192;2023-01-13T06:13:10;99292.27;;;6.53;73.82
76794;BME280;65745;50.278;18.192;2023-01-13T06:15:39;99300.76;;;6.57;73.62
76794;BME280;65745;50.278;18.192;2023-01-13T06:18:11;99305.44;;;6.59;73.30
76794;BME280;65745;50.278;18.192;2023-01-13T06:20:41;99303.38;;;6.60;73.35
76794;BME280;65745;50.278;18.192;2023-01-13T06:23:13;99297.36;;;6.58;72.79
76794;BME280;65745;50.278;18.192;2023-01-13T06:25:47;99295.73;;;6.61;73.29
76794;BME280;65745;50.278;18.192;2023-01-13T06:28:20;99311.79;;;6.67;73.45
76794;BME280;65745;50.278;18.192;2023-01-13T06:30:51;99312.18;;;6.69;73.08
76794;BME280;65745;50.278;18.192;2023-01-13T06:33:29;99310.87;;;6.71;73.03
76794;BME280;65745;50.278;18.192;2023-01-13T06:36:11;99317.55;;;6.71;72.69
76794;BME280;65745;50.278;18.192;2023-01-13T06:38:44;99314.73;;;6.69;72.32
76794;BME280;65745;50.278;18.192;2023-01-13T06:41:15;99315.42;;;6.69;72.78
76794;BME280;65745;50.278;18.192;2023-01-13T06:43:44;99312.94;;;6.71;73.19
76794;BME280;65745;50.278;18.192;2023-01-13T06:46:14;99310.54;;;6.71;73.09
76794;BME280;65745;50.278;18.192;2023-01-13T06:48:43;99314.09;;;6.70;72.88
76794;BME280;65745;50.278;18.192;2023-01-13T06:51:12;99309.43;;;6.68;72.61
76794;BME280;65745;50.278;18.192;2023-01-13T06:53:44;99309.72;;;6.66;72.67
76794;BME280;65745;50.278;18.192;2023-01-13T06:56:14;99309.76;;;6.67;73.12
76794;BME280;65745;50.278;18.192;2023-01-13T06:58:43;99306.75;;;6.70;73.34
76794;BME280;65745;50.278;18.192;2023-01-13T07:01:13;99304.25;;;6.72;73.25
76794;BME280;65745;50.278;18.192;2023-01-13T07:03:43;99306.14;;;6.74;72.68
76794;BME280;65745;50.278;18.192;2023-01-13T07:06:12;99308.82;;;6.78;72.43
76794;BME280;65745;50.278;18.192;2023-01-13T07:08:41;99303.24;;;6.81;72.57
76794;BME280;65745;50.278;18.192;2023-01-13T07:11:11;99299.20;;;6.82;73.15
76794;BME280;65745;50.278;18.192;2023-01-13T07:13:41;99308.80;;;6.83;73.58
76794;BME280;65745;50.278;18.192;2023-01-13T07:16:35;99310.52;;;6.84;73.47
76794;BME280;65745;50.278;18.192;2023-01-13T07:19:04;99304.48;;;6.82;73.40
76794;BME280;65745;50.278;18.192;2023-01-13T07:21:36;99309.33;;;6.77;73.99
76794;BME280;65745;50.278;18.192;2023-01-13T07:24:12;99306.92;;;6.77;74.50
76794;BME280;65745;50.278;18.192;2023-01-13T07:26:43;99308.61;;;6.76;74.79
76794;BME280;65745;50.278;18.192;2023-01-13T07:29:12;99309.55;;;6.73;74.86
76794;BME280;65745;50.278;18.192;2023-01-13T07:31:41;99309.79;;;6.69;75.31
76794;BME280;65745;50.278;18.192;2023-01-13T07:34:14;99306.42;;;6.71;75.97
76794;BME280;65745;50.278;18.192;2023-01-13T07:36:44;99307.11;;;6.71;76.18
76794;BME280;65745;50.278;18.192;2023-01-13T07:39:16;99302.61;;;6.70;75.70
76794;BME280;65745;50.278;18.192;2023-01-13T07:41:46;99307.89;;;6.68;75.90
76794;BME280;65745;50.278;18.192;2023-01-13T07:44:35;99309.77;;;6.68;76.52
76794;BME280;65745;50.278;18.192;2023-01-13T07:47:08;99315.52;;;6.71;76.64
76794;BME280;65745;50.278;18.192;2023-01-13T07:49:41;99319.80;;;6.72;76.47
76794;BME280;65745;50.278;18.192;2023-01-13T07:52:11;99317.35;;;6.70;76.39
76794;BME280;65745;50.278;18.192;2023-01-13T07:54:41;99318.02;;;6.70;76.86
76794;BME280;65745;50.278;18.192;2023-01-13T07:57:11;99324.38;;;6.70;77.31
76794;BME280;65745;50.278;18.192;2023-01-13T07:59:42;99325.11;;;6.72;77.29
76794;BME280;65745;50.278;18.192;2023-01-13T08:02:11;99323.39;;;6.72;77.07
76794;BME280;65745;50.278;18.192;2023-01-13T08:04:46;99324.58;;;6.71;76.88
76794;BME280;65745;50.278;18.192;2023-01-13T08:07:16;99321.20;;;6.73;77.12
76794;BME280;65745;50.278;18.192;2023-01-13T08:09:48;99325.95;;;6.78;77.60
76794;BME280;65745;50.278;18.192;2023-01-13T08:12:18;99326.73;;;6.82;77.27
76794;BME280;65745;50.278;18.192;2023-01-13T08:15:11;99330.44;;;6.86;76.87
76794;BME280;65745;50.278;18.192;2023-01-13T08:17:44;99335.81;;;6.89;76.71
76794;BME280;65745;50.278;18.192;2023-01-13T08:20:14;99333.27;;;6.90;76.69
76794;BME280;65745;50.278;18.192;2023-01-13T08:22:45;99338.36;;;6.96;77.16
76794;BME280;65745;50.278;18.192;2023-01-13T08:25:16;99341.55;;;7.00;77.10
76794;BME280;65745;50.278;18.192;2023-01-13T08:27:45;99339.55;;;7.01;76.89
76794;BME280;65745;50.278;18.192;2023-01-13T08:30:18;99342.45;;;7.02;76.45
76794;BME280;65745;50.278;18.192;2023-01-13T08:32:49;99340.73;;;7.01;76.91
76794;BME280;65745;50.278;18.192;2023-01-13T08:35:19;99341.88;;;7.06;76.86
76794;BME280;65745;50.278;18.192;2023-01-13T08:37:50;99337.51;;;7.09;76.66
76794;BME280;65745;50.278;18.192;2023-01-13T08:40:26;99334.20;;;7.07;76.58
76794;BME280;65745;50.278;18.192;2023-01-13T08:43:12;99328.95;;;7.08;76.42
76794;BME280;65745;50.278;18.192;2023-01-13T08:45:55;99334.49;;;7.12;76.86
76794;BME280;65745;50.278;18.192;2023-01-13T08:48:31;99335.08;;;7.15;76.88
76794;BME280;65745;50.278;18.192;2023-01-13T08:51:07;99336.59;;;7.20;76.46
76794;BME280;65745;50.278;18.192;2023-01-13T08:53:38;99339.04;;;7.23;75.89
76794;BME280;65745;50.278;18.192;2023-01-13T08:56:08;99340.65;;;7.26;75.57
76794;BME280;65745;50.278;18.192;2023-01-13T08:58:42;99341.14;;;7.32;75.79
76794;BME280;65745;50.278;18.192;2023-01-13T09:01:14;99338.38;;;7.38;76.06
76794;BME280;65745;50.278;18.192;2023-01-13T09:03:46;99336.98;;;7.45;75.63
76794;BME280;65745;50.278;18.192;2023-01-13T09:06:16;99339.70;;;7.50;74.95
76794;BME280;65745;50.278;18.192;2023-01-13T09:08:45;99337.65;;;7.51;74.62
76794;BME280;65745;50.278;18.192;2023-01-13T09:11:18;99337.52;;;7.53;74.54
76794;BME280;65745;50.278;18.192;2023-01-13T09:14:05;99333.80;;;7.55;74.96
76794;BME280;65745;50.278;18.192;2023-01-13T09:16:38;99328.70;;;7.57;74.65
76794;BME280;65745;50.278;18.192;2023-01-13T09:19:06;99321.38;;;7.59;74.32
76794;BME280;65745;50.278;18.192;2023-01-13T09:21:42;99317.09;;;7.59;74.06
76794;BME280;65745;50.278;18.192;2023-01-13T09:24:12;99317.65;;;7.61;73.86
76794;BME280;65745;50.278;18.192;2023-01-13T09:26:44;99314.19;;;7.67;74.03
76794;BME280;65745;50.278;18.192;2023-01-13T09:29:16;99317.07;;;7.74;73.78
76794;BME280;65745;50.278;18.192;2023-01-13T09:31:46;99313.40;;;7.78;73.70
76794;BME280;65745;50.278;18.192;2023-01-13T09:34:17;99313.65;;;7.81;73.36
76794;BME280;65745;50.278;18.192;2023-01-13T09:37:14;99317.33;;;7.85;73.41
76794;BME280;65745;50.278;18.192;2023-01-13T09:39:44;99311.27;;;7.91;73.62
76794;BME280;65745;50.278;18.192;2023-01-13T09:42:19;99307.70;;;8.00;73.45
76794;BME280;65745;50.278;18.192;2023-01-13T09:45:14;99305.83;;;8.10;72.96
76794;BME280;65745;50.278;18.192;2023-01-13T09:47:57;99300.08;;;8.14;72.82
76794;BME280;65745;50.278;18.192;2023-01-13T09:50:58;99301.19;;;8.18;73.08
76794;BME280;65745;50.278;18.192;2023-01-13T09:53:48;99294.43;;;8.23;73.68
76794;BME280;65745;50.278;18.192;2023-01-13T09:56:22;99294.65;;;8.33;73.56
76794;BME280;65745;50.278;18.192;2023-01-13T09:58:57;99291.14;;;8.38;73.11
76794;BME280;65745;50.278;18.192;2023-01-13T10:01:42;99295.35;;;8.42;72.96
76794;BME280;65745;50.278;18.192;2023-01-13T10:04:25;99294.02;;;8.45;72.86
76794;BME280;65745;50.278;18.192;2023-01-13T10:06:58;99286.60;;;8.52;72.63
76794;BME280;65745;50.278;18.192;2023-01-13T10:09:45;99287.10;;;8.61;72.79
76794;BME280;65745;50.278;18.192;2023-01-13T10:12:22;99285.73;;;8.71;72.24
76794;BME280;65745;50.278;18.192;2023-01-13T10:15:15;99277.81;;;8.80;71.99
76794;BME280;65745;50.278;18.192;2023-01-13T10:17:49;99272.83;;;8.89;71.86
76794;BME280;65745;50.278;18.192;2023-01-13T10:20:24;99270.98;;;9.03;71.65
76794;BME280;65745;50.278;18.192;2023-01-13T10:23:01;99270.80;;;9.24;71.60
76794;BME280;65745;50.278;18.192;2023-01-13T10:25:47;99280.19;;;9.56;70.77
76794;BME280;65745;50.278;18.192;2023-01-13T10:28:20;99274.35;;;9.82;70.71
76794;BME280;65745;50.278;18.192;2023-01-13T10:30:51;99276.48;;;10.01;70.22
76794;BME280;65745;50.278;18.192;2023-01-13T10:33:21;99269.21;;;10.13;69.71
76794;BME280;65745;50.278;18.192;2023-01-13T10:35:58;99265.41;;;10.11;69.78
76794;BME280;65745;50.278;18.192;2023-01-13T10:38:35;99262.91;;;10.17;69.84
76794;BME280;65745;50.278;18.192;2023-01-13T10:41:26;99266.59;;;10.21;69.77
76794;BME280;65745;50.278;18.192;2023-01-13T10:44:14;99264.69;;;10.07;69.17
76794;BME280;65745;50.278;18.192;2023-01-13T10:46:53;99265.41;;;9.96;68.94
76794;BME280;65745;50.278;18.192;2023-01-13T10:49:31;99262.09;;;9.92;69.23
76794;BME280;65745;50.278;18.192;2023-01-13T10:52:27;99255.63;;;9.84;68.86
76794;BME280;65745;50.278;18.192;2023-01-13T10:54:57;99259.88;;;9.81;69.50
76794;BME280;65745;50.278;18.192;2023-01-13T10:57:27;99265.11;;;9.86;69.61
76794;BME280;65745;50.278;18.192;2023-01-13T10:59:55;99258.58;;;9.86;69.01
76794;BME280;65745;50.278;18.192;2023-01-13T11:02:27;99261.15;;;9.86;68.57
76794;BME280;65745;50.278;18.192;2023-01-13T11:05:21;99256.16;;;9.85;68.45
76794;BME280;65745;50.278;18.192;2023-01-13T11:07:52;99252.17;;;9.82;68.61
76794;BME280;65745;50.278;18.192;2023-01-13T11:10:26;99243.17;;;9.78;68.41
76794;BME280;65745;50.278;18.192;2023-01-13T11:13:06;99238.35;;;9.77;68.68
76794;BME280;65745;50.278;18.192;2023-01-13T11:15:45;99227.34;;;9.78;68.81
76794;BME280;65745;50.278;18.192;2023-01-13T11:18:26;99219.13;;;9.81;68.57
76794;BME280;65745;50.278;18.192;2023-01-13T11:20:58;99212.16;;;9.88;67.97
76794;BME280;65745;50.278;18.192;2023-01-13T11:23:44;99207.50;;;9.88;67.65
76794;BME280;65745;50.278;18.192;2023-01-13T11:26:22;99202.77;;;9.79;67.71
76794;BME280;65745;50.278;18.192;2023-01-13T11:29:24;99201.78;;;9.69;68.16
76794;BME280;65745;50.278;18.192;2023-01-13T11:32:02;99203.73;;;9.60;68.23
76794;BME280;65745;50.278;18.192;2023-01-13T11:34:45;99203.18;;;9.57;68.31
76794;BME280;65745;50.278;18.192;2023-01-13T11:37:21;99205.78;;;9.59;68.22
76794;BME280;65745;50.278;18.192;2023-01-13T11:39:54;99209.90;;;9.58;68.26
76794;BME280;65745;50.278;18.192;2023-01-13T11:42:42;99221.45;;;9.61;68.92
76794;BME280;65745;50.278;18.192;2023-01-13T11:45:19;99224.27;;;9.65;69.02
76794;BME280;65745;50.278;18.192;2023-01-13T11:47:53;99231.88;;;9.69;68.77
76794;BME280;65745;50.278;18.192;2023-01-13T11:50:30;99241.75;;;9.74;68.40
76794;BME280;65745;50.278;18.192;2023-01-13T11:53:14;99240.88;;;9.73;68.12
76794;BME280;65745;50.278;18.192;2023-01-13T11:56:00;99240.98;;;9.68;68.20
76794;BME280;65745;50.278;18.192;2023-01-13T11:58:58;99242.16;;;9.66;68.71
76794;BME280;65745;50.278;18.192;2023-01-13T12:01:42;99245.05;;;9.64;68.62
76794;BME280;65745;50.278;18.192;2023-01-13T12:04:25;99233.79;;;9.56;68.16
76794;BME280;65745;50.278;18.192;2023-01-13T12:07:07;99231.30;;;9.50;68.14
76794;BME280;65745;50.278;18.192;2023-01-13T12:09:52;99230.80;;;9.40;67.82
76794;BME280;65745;50.278;18.192;2023-01-13T12:12:39;99225.49;;;9.29;67.71
76794;BME280;65745;50.278;18.192;2023-01-13T12:15:33;99224.34;;;9.19;67.92
76794;BME280;65745;50.278;18.192;2023-01-13T12:18:32;99219.23;;;9.12;68.70
76794;BME280;65745;50.278;18.192;2023-01-13T12:21:19;99216.65;;;9.10;68.54
76794;BME280;65745;50.278;18.192;2023-01-13T12:24:09;99220.25;;;9.10;68.40
76794;BME280;65745;50.278;18.192;2023-01-13T12:26:47;99226.08;;;9.09;68.10
76794;BME280;65745;50.278;18.192;2023-01-13T12:29:28;99221.91;;;9.06;68.12
76794;BME280;65745;50.278;18.192;2023-01-13T12:32:00;99219.98;;;9.04;67.88
76794;BME280;65745;50.278;18.192;2023-01-13T12:34:56;99225.45;;;9.03;67.67
76794;BME280;65745;50.278;18.192;2023-01-13T12:37:36;99221.36;;;9.04;68.50
76794;BME280;65745;50.278;18.192;2023-01-13T12:40:22;99220.89;;;9.08;68.12
76794;BME280;65745;50.278;18.192;2023-01-13T12:43:01;99217.28;;;9.07;67.86
76794;BME280;65745;50.278;18.192;2023-01-13T12:45:50;99215.17;;;9.04;67.82
76794;BME280;65745;50.278;18.192;2023-01-13T12:48:58;99212.05;;;9.02;67.65
76794;BME280;65745;50.278;18.192;2023-01-13T12:52:03;99214.04;;;8.98;67.70
76794;BME280;65745;50.278;18.192;2023-01-13T12:55:10;99214.87;;;8.95;68.27
76794;BME280;65745;50.278;18.192;2023-01-13T12:57:59;99209.40;;;8.98;69.00
76794;BME280;65745;50.278;18.192;2023-01-13T13:00:56;99212.34;;;8.98;68.63
76794;BME280;65745;50.278;18.192;2023-01-13T13:03:32;99215.39;;;8.97;68.84
76794;BME280;65745;50.278;18.192;2023-01-13T13:06:18;99215.73;;;8.95;68.73
76794;BME280;65745;50.278;18.192;2023-01-13T13:09:02;99212.08;;;8.92;68.75
76794;BME280;65745;50.278;18.192;2023-01-13T13:11:44;99213.48;;;8.93;69.25
76794;BME280;65745;50.278;18.192;2023-01-13T13:15:00;99224.82;;;8.94;69.78
76794;BME280;65745;50.278;18.192;2023-01-13T13:20:52;99229.23;;;8.91;69.32
76794;BME280;65745;50.278;18.192;2023-01-13T13:26:40;99221.66;;;8.90;69.24
76794;BME280;65745;50.278;18.192;2023-01-13T13:29:43;99221.83;;;8.89;69.92
76794;BME280;65745;50.278;18.192;2023-01-13T13:35:42;99220.36;;;8.94;69.34
76794;BME280;65745;50.278;18.192;2023-01-13T13:41:49;99212.86;;;8.88;69.45
76794;BME280;65745;50.278;18.192;2023-01-13T13:44:45;99214.00;;;8.83;69.80
76794;BME280;65745;50.278;18.192;2023-01-13T13:47:39;99210.05;;;8.84;70.23
76794;BME280;65745;50.278;18.192;2023-01-13T13:50:13;99213.46;;;8.82;70.24
76794;BME280;65745;50.278;18.192;2023-01-13T13:52:45;99218.23;;;8.79;69.86
76794;BME280;65745;50.278;18.192;2023-01-13T13:55:24;99215.77;;;8.76;70.00
76794;BME280;65745;50.278;18.192;2023-01-13T13:57:55;99208.84;;;8.72;69.56
76794;BME280;65745;50.278;18.192;2023-01-13T14:00:27;99201.80;;;8.72;69.70
76794;BME280;65745;50.278;18.192;2023-01-13T14:02:59;99190.81;;;8.72;70.02
76794;BME280;65745;50.278;18.192;2023-01-13T14:05:30;99191.67;;;8.72;70.16